createdAt,value
2018-11-07T00:00:34.356Z,3.25
2018-11-07T00:03:03.061Z,4.53
2018-11-07T00:05:31.866Z,5.50
2018-11-07T00:08:00.656Z,5.30
2018-11-07T00:10:47.118Z,4.60
2018-11-07T00:13:15.842Z,4.62
2018-11-07T00:15:44.522Z,4.40
2018-11-07T00:18:13.241Z,3.72
2018-11-07T00:20:42.714Z,3.50
2018-11-07T00:23:11.397Z,5.10
2018-11-07T00:25:40.115Z,4.30
2018-11-07T00:28:08.819Z,4.85
2018-11-07T00:30:37.524Z,3.75
2018-11-07T00:33:06.263Z,4.00
2018-11-07T00:35:34.967Z,4.17
2018-11-07T00:38:03.687Z,3.80
2018-11-07T00:40:32.417Z,5.00
2018-11-07T00:43:01.186Z,4.42
2018-11-07T00:45:29.953Z,3.05
2018-11-07T00:47:58.685Z,3.62
2018-11-07T00:50:27.403Z,3.47
2018-11-07T00:52:56.120Z,3.40
2018-11-07T00:55:25.624Z,3.27
2018-11-07T00:57:54.430Z,3.30
2018-11-07T01:00:23.149Z,4.60
2018-11-07T01:02:51.852Z,3.40
2018-11-07T01:05:20.529Z,4.80
2018-11-07T01:07:49.243Z,3.20
2018-11-07T01:10:17.951Z,3.87
2018-11-07T01:12:46.709Z,3.35
2018-11-07T01:15:15.465Z,4.15
2018-11-07T01:17:44.217Z,3.02
2018-11-07T01:20:14.079Z,4.40
2018-11-07T01:22:42.819Z,3.20
2018-11-07T01:25:11.535Z,3.75
2018-11-07T01:27:40.284Z,2.98
2018-11-07T01:30:10.658Z,3.60
2018-11-07T01:32:39.550Z,3.30
2018-11-07T01:35:08.544Z,5.12
2018-11-07T01:37:37.259Z,4.37
2018-11-07T01:40:08.500Z,3.75
2018-11-07T01:42:37.211Z,2.52
2018-11-07T01:45:07.020Z,3.45
2018-11-07T01:47:35.715Z,4.17
2018-11-07T01:50:05.616Z,5.35
2018-11-07T01:52:34.415Z,3.30
2018-11-07T01:55:03.171Z,4.10
2018-11-07T01:57:31.935Z,3.17
2018-11-07T02:00:00.945Z,3.37
2018-11-07T02:02:29.712Z,4.50
2018-11-07T02:04:58.432Z,3.58
2018-11-07T02:07:27.186Z,3.75
2018-11-07T02:09:55.924Z,3.87
2018-11-07T02:12:24.932Z,5.35
2018-11-07T02:14:53.668Z,3.20
2018-11-07T02:17:22.488Z,3.72
2018-11-07T02:19:51.176Z,3.70
2018-11-07T02:22:19.930Z,2.50
2018-11-07T02:24:49.563Z,4.60
2018-11-07T02:27:18.299Z,3.40
2018-11-07T02:29:47.076Z,3.17
2018-11-07T02:32:15.749Z,2.42
2018-11-07T02:34:44.451Z,3.75
2018-11-07T02:37:13.193Z,3.50
2018-11-07T02:39:41.941Z,2.60
2018-11-07T02:42:10.637Z,3.37
2018-11-07T02:44:39.356Z,4.95
2018-11-07T02:47:08.044Z,3.77
2018-11-07T02:49:36.829Z,2.60
2018-11-07T02:52:05.563Z,2.95
2018-11-07T02:54:34.250Z,4.60
2018-11-07T02:57:03.005Z,3.50
2018-11-07T02:59:31.775Z,4.00
2018-11-07T03:02:00.477Z,3.72
2018-11-07T03:04:29.207Z,3.45
2018-11-07T03:06:57.932Z,3.60
2018-11-07T03:09:26.596Z,3.00
2018-11-07T03:11:55.328Z,4.22
2018-11-07T03:14:24.036Z,3.50
2018-11-07T03:16:52.748Z,2.50
2018-11-07T03:19:21.459Z,2.92
2018-11-07T03:21:50.660Z,2.87
2018-11-07T03:24:19.344Z,2.58
2018-11-07T03:26:48.076Z,2.83
2018-11-07T03:29:16.799Z,2.70
2018-11-07T03:31:45.507Z,2.33
2018-11-07T03:34:14.624Z,2.70
2018-11-07T03:36:43.385Z,3.35
2018-11-07T03:39:12.371Z,2.55
2018-11-07T03:41:41.167Z,4.40
2018-11-07T03:44:10.298Z,3.00
2018-11-07T03:46:39.003Z,3.17
2018-11-07T03:49:07.693Z,2.52
2018-11-07T03:51:36.417Z,2.98
2018-11-07T03:54:05.245Z,2.40
2018-11-07T03:56:33.991Z,2.52
2018-11-07T03:59:02.651Z,2.30
2018-11-07T04:01:31.383Z,3.83
2018-11-07T04:04:00.116Z,4.12
2018-11-07T04:06:28.859Z,3.12
2018-11-07T04:08:57.579Z,2.50
2018-11-07T04:11:27.043Z,3.65
2018-11-07T04:13:55.702Z,2.85
2018-11-07T04:16:24.412Z,2.65
2018-11-07T04:18:53.148Z,3.52
2018-11-07T04:21:21.900Z,2.30
2018-11-07T04:24:01.665Z,2.90
2018-11-07T04:26:31.548Z,3.12
2018-11-07T04:29:00.339Z,2.67
2018-11-07T04:31:29.384Z,3.87
2018-11-07T04:33:58.198Z,2.37
2018-11-07T04:36:26.913Z,3.17
2018-11-07T04:38:55.931Z,3.05
2018-11-07T04:41:24.761Z,2.85
2018-11-07T04:43:53.553Z,4.20
2018-11-07T04:46:22.443Z,3.55
2018-11-07T04:48:51.131Z,4.45
2018-11-07T04:51:19.914Z,2.70
2018-11-07T04:53:48.674Z,2.40
2018-11-07T04:56:17.592Z,2.98
2018-11-07T04:58:46.353Z,2.47
2018-11-07T05:01:15.066Z,2.47
2018-11-07T05:03:43.808Z,3.60
2018-11-07T05:06:12.567Z,2.58
2018-11-07T05:08:41.518Z,3.25
2018-11-07T05:11:10.114Z,2.95
2018-11-07T05:13:38.824Z,4.67
2018-11-07T05:16:07.517Z,2.25
2018-11-07T05:18:36.259Z,2.20
2018-11-07T05:21:05.103Z,3.10
2018-11-07T05:23:33.888Z,4.22
2018-11-07T05:26:02.676Z,2.80
2018-11-07T05:28:32.464Z,2.50
2018-11-07T05:31:02.060Z,2.95
2018-11-07T05:33:30.841Z,2.98
2018-11-07T05:35:59.628Z,2.90
2018-11-07T05:38:28.330Z,3.05
2018-11-07T05:40:57.129Z,2.83
2018-11-07T05:43:25.864Z,3.10
2018-11-07T05:45:54.608Z,3.58
2018-11-07T05:48:23.311Z,3.37
2018-11-07T05:50:52.055Z,2.65
2018-11-07T05:53:20.843Z,3.25
2018-11-07T05:55:49.571Z,3.80
2018-11-07T05:58:18.224Z,3.20
2018-11-07T06:00:46.943Z,2.87
2018-11-07T06:03:15.643Z,3.60
2018-11-07T06:05:44.385Z,3.72
2018-11-07T06:08:13.150Z,2.90
2018-11-07T06:10:41.894Z,2.80
2018-11-07T06:13:10.711Z,2.25
2018-11-07T06:15:39.475Z,3.52
2018-11-07T06:18:08.179Z,4.15
2018-11-07T06:20:36.903Z,3.58
2018-11-07T06:23:05.664Z,3.40
2018-11-07T06:25:34.337Z,3.08
2018-11-07T06:28:03.143Z,1.77
2018-11-07T06:30:31.947Z,2.45
2018-11-07T06:33:00.683Z,3.60
2018-11-07T06:35:29.425Z,2.77
2018-11-07T06:37:58.464Z,3.33
2018-11-07T06:40:27.348Z,2.47
2018-11-07T06:42:56.112Z,2.37
2018-11-07T06:45:24.889Z,2.50
2018-11-07T06:47:53.616Z,2.52
2018-11-07T06:50:22.317Z,2.25
2018-11-07T06:52:51.123Z,2.65
2018-11-07T06:55:19.828Z,1.37
2018-11-07T06:57:48.553Z,2.27
2018-11-07T07:00:17.993Z,2.30
2018-11-07T07:02:47.920Z,2.55
2018-11-07T07:05:17.108Z,2.25
2018-11-07T07:07:45.773Z,2.33
2018-11-07T07:10:15.763Z,2.37
2018-11-07T07:12:44.498Z,1.75
2018-11-07T07:15:14.349Z,2.80
2018-11-07T07:17:43.156Z,2.27
2018-11-07T07:20:15.048Z,1.80
2018-11-07T07:22:44.733Z,1.67
2018-11-07T07:25:13.944Z,2.85
2018-11-07T07:27:43.481Z,2.95
2018-11-07T07:30:15.484Z,3.05
2018-11-07T07:32:45.613Z,2.02
2018-11-07T07:35:14.821Z,2.20
2018-11-07T07:37:43.823Z,2.70
2018-11-07T07:40:13.866Z,1.80
2018-11-07T07:42:43.316Z,2.20
2018-11-07T07:45:14.033Z,2.00
2018-11-07T07:47:43.249Z,2.85
2018-11-07T07:50:15.152Z,2.80
2018-11-07T07:52:44.489Z,1.87
2018-11-07T07:55:13.375Z,1.75
2018-11-07T07:57:42.903Z,2.27
2018-11-07T08:00:13.563Z,3.58
2018-11-07T08:02:44.353Z,2.40
2018-11-07T08:05:13.099Z,2.77
2018-11-07T08:07:42.130Z,1.77
2018-11-07T08:10:12.810Z,2.90
2018-11-07T08:12:42.285Z,1.50
2018-11-07T08:15:11.365Z,1.82
2018-11-07T08:17:40.909Z,1.45
2018-11-07T08:20:10.677Z,1.55
2018-11-07T08:22:39.583Z,1.80
2018-11-07T08:25:08.329Z,1.32
2018-11-07T08:27:37.042Z,2.33
2018-11-07T08:30:08.701Z,2.22
2018-11-07T08:32:37.445Z,2.72
2018-11-07T08:35:07.323Z,2.02
2018-11-07T08:37:36.049Z,2.17
2018-11-07T08:40:07.271Z,1.70
2018-11-07T08:42:37.654Z,1.45
2018-11-07T08:45:06.911Z,2.33
2018-11-07T08:47:36.525Z,1.57
2018-11-07T08:50:08.960Z,2.05
2018-11-07T08:52:37.665Z,2.85
2018-11-07T08:55:08.133Z,3.25
2018-11-07T08:57:37.044Z,1.98
2018-11-07T09:00:08.439Z,1.98
2018-11-07T09:02:37.138Z,1.75
2018-11-07T09:05:06.322Z,1.22
2018-11-07T09:07:35.153Z,2.15
2018-11-07T09:10:04.207Z,1.77
2018-11-07T09:12:32.893Z,1.42
2018-11-07T09:15:01.577Z,1.85
2018-11-07T09:17:30.312Z,1.30
2018-11-07T09:19:59.150Z,1.80
2018-11-07T09:22:27.801Z,2.22
2018-11-07T09:24:56.625Z,1.62
2018-11-07T09:27:25.285Z,1.62
2018-11-07T09:29:53.997Z,1.40
2018-11-07T09:32:22.709Z,1.55
2018-11-07T09:34:51.523Z,1.42
2018-11-07T09:37:20.281Z,1.70
2018-11-07T09:39:49.047Z,1.70
2018-11-07T09:42:17.689Z,2.62
2018-11-07T09:44:46.440Z,1.77
2018-11-07T09:47:15.909Z,2.12
2018-11-07T09:49:44.603Z,2.62
2018-11-07T09:52:13.305Z,1.70
2018-11-07T09:54:42.037Z,1.85
2018-11-07T09:57:10.758Z,2.15
2018-11-07T09:59:39.457Z,1.17
2018-11-07T10:02:09.125Z,1.40
2018-11-07T10:04:37.857Z,1.52
2018-11-07T10:07:07.759Z,1.10
2018-11-07T10:09:36.440Z,1.50
2018-11-07T10:12:05.271Z,1.90
2018-11-07T10:14:35.657Z,1.47
2018-11-07T10:17:04.367Z,1.90
2018-11-07T10:19:33.083Z,1.45
2018-11-07T10:22:01.822Z,1.35
2018-11-07T10:24:30.520Z,1.80
2018-11-07T10:26:59.389Z,2.05
2018-11-07T10:29:28.355Z,1.75
2018-11-07T10:31:56.702Z,1.55
2018-11-07T10:34:25.455Z,1.57
2018-11-07T10:36:54.128Z,1.87
2018-11-07T10:39:22.817Z,2.25
2018-11-07T10:41:51.546Z,1.15
2018-11-07T10:44:20.345Z,2.00
2018-11-07T10:46:48.990Z,2.47
2018-11-07T10:49:17.685Z,1.45
2018-11-07T10:51:46.456Z,1.55
2018-11-07T10:54:15.129Z,1.72
2018-11-07T10:56:43.856Z,1.80
2018-11-07T10:59:12.587Z,2.17
2018-11-07T11:01:46.684Z,1.50
2018-11-07T11:04:15.406Z,1.20
2018-11-07T11:06:44.133Z,1.60
2018-11-07T11:09:12.864Z,2.10
2018-11-07T11:11:41.637Z,1.20
2018-11-07T11:14:10.378Z,1.55
2018-11-07T11:16:39.111Z,2.22
2018-11-07T11:19:07.790Z,2.65
2018-11-07T11:21:36.724Z,1.67
2018-11-07T11:24:05.405Z,1.60
2018-11-07T11:26:34.170Z,2.10
2018-11-07T11:29:05.026Z,1.50
2018-11-07T11:31:33.791Z,1.45
2018-11-07T11:34:03.305Z,1.15
2018-11-07T11:36:31.892Z,1.85
2018-11-07T11:39:00.631Z,1.70
2018-11-07T11:41:29.394Z,1.10
2018-11-07T11:43:58.116Z,1.60
2018-11-07T11:46:27.043Z,1.65
2018-11-07T11:48:55.848Z,1.65
2018-11-07T11:51:24.541Z,1.42
2018-11-07T11:53:53.300Z,1.40
2018-11-07T11:56:22.024Z,1.10
2018-11-07T11:58:50.871Z,1.20
2018-11-07T12:01:19.493Z,1.50
2018-11-07T12:03:50.531Z,2.20
2018-11-07T12:06:19.234Z,2.40
2018-11-07T12:08:47.999Z,1.60
2018-11-07T12:11:16.679Z,1.10
2018-11-07T12:13:45.489Z,1.25
2018-11-07T12:16:14.304Z,1.20
2018-11-07T12:18:43.074Z,1.30
2018-11-07T12:21:11.840Z,1.60
2018-11-07T12:23:40.488Z,1.10
2018-11-07T12:26:09.222Z,1.85
2018-11-07T12:28:37.914Z,1.60
2018-11-07T12:31:06.655Z,1.00
2018-11-07T12:36:26.637Z,1.40
2018-11-07T12:38:55.280Z,1.40
2018-11-07T12:41:23.996Z,1.52
2018-11-07T12:43:52.707Z,1.75
2018-11-07T12:46:22.829Z,1.45
2018-11-07T12:48:51.531Z,2.00
2018-11-07T12:51:20.240Z,1.45
2018-11-07T12:53:48.976Z,2.45
2018-11-07T12:56:17.684Z,1.40
2018-11-07T12:58:46.457Z,2.35
2018-11-07T13:01:15.223Z,3.02
2018-11-07T13:03:43.937Z,1.80
2018-11-07T13:06:12.922Z,1.87
2018-11-07T13:08:41.631Z,1.52
2018-11-07T13:11:10.431Z,1.40
2018-11-07T13:13:39.085Z,1.85
2018-11-07T13:16:07.779Z,1.10
2018-11-07T13:18:36.461Z,1.47
2018-11-07T13:21:05.303Z,1.42
2018-11-07T13:23:33.997Z,1.27
2018-11-07T13:26:02.711Z,1.82
2018-11-07T13:28:31.443Z,1.40
2018-11-07T13:31:00.134Z,1.22
2018-11-07T13:33:28.929Z,1.00
2018-11-07T13:35:57.621Z,1.20
2018-11-07T13:38:26.756Z,1.00
2018-11-07T13:40:55.120Z,1.75
2018-11-07T13:43:23.893Z,1.20
2018-11-07T13:45:52.697Z,1.15
2018-11-07T13:48:21.365Z,1.27
2018-11-07T13:50:50.081Z,1.00
2018-11-07T13:53:18.945Z,1.30
2018-11-07T13:55:47.458Z,1.35
2018-11-07T13:58:16.174Z,1.20
2018-11-07T14:00:44.913Z,1.30
2018-11-07T14:03:13.637Z,1.30
2018-11-07T14:05:42.628Z,1.10
2018-11-07T14:08:11.167Z,1.67
2018-11-07T14:10:39.877Z,1.55
2018-11-07T14:13:08.605Z,1.82
2018-11-07T14:15:37.309Z,1.42
2018-11-07T14:18:07.213Z,1.75
2018-11-07T14:20:35.975Z,1.10
2018-11-07T14:23:06.393Z,1.20
2018-11-07T14:25:35.053Z,1.12
2018-11-07T14:28:04.051Z,1.00
2018-11-07T14:30:32.639Z,1.37
2018-11-07T14:33:01.897Z,1.30
2018-11-07T14:35:30.639Z,1.45
2018-11-07T14:37:59.437Z,1.20
2018-11-07T14:40:28.193Z,1.52
2018-11-07T14:42:56.989Z,1.55
2018-11-07T14:45:25.701Z,1.20
2018-11-07T14:47:54.554Z,1.10
2018-11-07T14:50:23.141Z,1.45
2018-11-07T14:52:51.849Z,1.17
2018-11-07T14:55:20.705Z,1.52
2018-11-07T14:57:49.703Z,1.20
2018-11-07T15:00:18.590Z,1.35
2018-11-07T15:02:47.648Z,1.20
2018-11-07T15:05:17.291Z,1.45
2018-11-07T15:07:46.133Z,1.07
2018-11-07T15:10:15.725Z,1.82
2018-11-07T15:12:44.479Z,1.57
2018-11-07T15:15:14.552Z,1.17
2018-11-07T15:17:43.784Z,1.32
2018-11-07T15:20:14.134Z,1.40
2018-11-07T15:22:42.891Z,1.30
2018-11-07T15:25:13.502Z,1.42
2018-11-07T15:27:43.368Z,1.57
2018-11-07T15:30:15.780Z,1.37
2018-11-07T15:32:44.892Z,1.12
2018-11-07T15:35:13.938Z,1.77
2018-11-07T15:37:42.711Z,1.32
2018-11-07T15:40:13.308Z,1.67
2018-11-07T15:42:42.520Z,1.37
2018-11-07T15:45:14.094Z,1.60
2018-11-07T15:47:44.006Z,1.12
2018-11-07T15:50:17.964Z,1.80
2018-11-07T15:52:47.505Z,1.12
2018-11-07T15:55:16.222Z,1.65
2018-11-07T15:57:45.073Z,1.92
2018-11-07T16:00:15.179Z,2.08
2018-11-07T16:02:43.830Z,1.98
2018-11-07T16:05:13.643Z,3.87
2018-11-07T16:07:42.689Z,2.00
2018-11-07T16:10:12.404Z,1.85
2018-11-07T16:12:41.629Z,3.05
2018-11-07T16:15:12.386Z,3.58
2018-11-07T16:17:41.723Z,2.37
2018-11-07T16:20:12.516Z,3.58
2018-11-07T16:22:42.304Z,3.60
2018-11-07T16:25:11.189Z,2.33
2018-11-07T16:27:40.720Z,3.83
2018-11-07T16:30:11.343Z,2.17
2018-11-07T16:32:40.132Z,2.60
2018-11-07T16:35:09.738Z,1.72
2018-11-07T16:37:38.474Z,1.95
2018-11-07T16:40:09.036Z,2.95
2018-11-07T16:42:37.918Z,1.72
2018-11-07T16:45:07.935Z,3.22
2018-11-07T16:47:36.824Z,1.92
2018-11-07T16:50:06.621Z,1.75
2018-11-07T16:52:36.726Z,2.35
2018-11-07T16:55:05.602Z,2.60
2018-11-07T16:57:34.816Z,1.50
2018-11-07T17:00:04.026Z,2.05
2018-11-07T17:02:32.874Z,1.77
2018-11-07T17:05:01.790Z,2.08
2018-11-07T17:07:30.593Z,1.90
2018-11-07T17:09:59.436Z,2.00
2018-11-07T17:12:28.508Z,2.10
2018-11-07T17:14:57.905Z,2.90
2018-11-07T17:17:27.409Z,1.85
2018-11-07T17:19:56.892Z,1.95
2018-11-07T17:22:26.125Z,1.62
2018-11-07T17:25:00.043Z,1.75
2018-11-07T17:27:31.227Z,2.37
2018-11-07T17:30:01.969Z,2.65
2018-11-07T17:32:30.902Z,1.77
2018-11-07T17:34:59.747Z,1.95
2018-11-07T17:37:28.695Z,1.62
2018-11-07T17:39:57.552Z,1.67
2018-11-07T17:42:26.949Z,1.75
2018-11-07T17:44:55.916Z,2.52
2018-11-07T17:47:26.311Z,1.15
2018-11-07T17:49:59.088Z,1.55
2018-11-07T17:52:28.044Z,2.20
2018-11-07T17:54:57.413Z,1.82
2018-11-07T17:57:26.207Z,2.10
2018-11-07T17:59:55.131Z,1.90
2018-11-07T18:02:24.007Z,2.08
2018-11-07T18:04:52.988Z,1.80
2018-11-07T18:07:21.751Z,1.95
2018-11-07T18:09:50.822Z,2.42
2018-11-07T18:12:19.481Z,2.47
2018-11-07T18:14:48.266Z,1.92
2018-11-07T18:17:17.418Z,1.77
2018-11-07T18:19:46.109Z,2.47
2018-11-07T18:22:14.903Z,1.92
2018-11-07T18:24:43.869Z,1.75
2018-11-07T18:27:12.851Z,1.62
2018-11-07T18:29:41.620Z,2.00
2018-11-07T18:32:10.431Z,1.72
2018-11-07T18:34:39.227Z,2.33
2018-11-07T18:37:08.224Z,1.90
2018-11-07T18:39:38.081Z,2.15
2018-11-07T18:42:09.565Z,2.25
2018-11-07T18:44:38.450Z,2.60
2018-11-07T18:47:07.107Z,2.50
2018-11-07T18:49:35.793Z,2.15
2018-11-07T18:52:05.117Z,2.47
2018-11-07T18:54:34.104Z,1.37
2018-11-07T18:57:03.051Z,2.45
2018-11-07T18:59:32.956Z,1.80
2018-11-07T19:02:01.753Z,1.70
2018-11-07T19:04:30.536Z,1.80
2018-11-07T19:06:59.321Z,1.85
2018-11-07T19:09:28.705Z,2.15
2018-11-07T19:11:59.290Z,2.02
2018-11-07T19:14:28.063Z,1.77
2018-11-07T19:16:57.019Z,2.52
2018-11-07T19:19:25.767Z,1.45
2018-11-07T19:21:54.703Z,2.75
2018-11-07T19:24:23.608Z,1.57
2018-11-07T19:26:52.554Z,1.50
2018-11-07T19:29:23.141Z,1.40
2018-11-07T19:31:53.481Z,2.27
2018-11-07T19:34:22.372Z,1.98
2018-11-07T19:36:51.083Z,2.62
2018-11-07T19:39:19.813Z,1.75
2018-11-07T19:41:48.653Z,1.80
2018-11-07T19:44:17.385Z,2.40
2018-11-07T19:46:47.513Z,1.60
2018-11-07T19:49:16.548Z,1.45
2018-11-07T19:51:45.289Z,2.35
2018-11-07T19:54:14.382Z,2.15
2018-11-07T19:56:43.432Z,1.52
2018-11-07T19:59:12.213Z,2.00
2018-11-07T20:01:42.629Z,1.75
2018-11-07T20:04:11.325Z,1.37
2018-11-07T20:06:45.010Z,1.95
2018-11-07T20:09:13.815Z,2.37
2018-11-07T20:11:42.569Z,1.52
2018-11-07T20:14:12.015Z,2.65
2018-11-07T20:16:40.897Z,2.58
2018-11-07T20:19:09.633Z,2.77
2018-11-07T20:21:38.419Z,2.37
2018-11-07T20:24:07.377Z,2.35
2018-11-07T20:26:36.130Z,1.77
2018-11-07T20:29:05.669Z,1.10
2018-11-07T20:31:34.383Z,1.77
2018-11-07T20:34:04.396Z,1.82
2018-11-07T20:36:34.927Z,1.70
2018-11-07T20:39:05.022Z,2.50
2018-11-07T20:41:34.177Z,1.87
2018-11-07T20:44:03.136Z,1.80
2018-11-07T20:46:33.325Z,2.12
2018-11-07T20:49:02.226Z,2.02
2018-11-07T20:51:31.049Z,1.67
2018-11-07T20:53:59.752Z,1.40
2018-11-07T20:56:28.519Z,1.32
2018-11-07T20:58:57.289Z,1.62
2018-11-07T21:01:26.787Z,2.05
2018-11-07T21:03:55.473Z,2.20
2018-11-07T21:06:24.179Z,1.92
2018-11-07T21:08:54.317Z,1.87
2018-11-07T21:11:23.895Z,2.98
2018-11-07T21:13:52.781Z,2.00
2018-11-07T21:16:21.724Z,2.05
2018-11-07T21:18:50.595Z,2.67
2018-11-07T21:21:19.951Z,2.20
2018-11-07T21:23:48.729Z,1.90
2018-11-07T21:26:17.487Z,1.65
2018-11-07T21:28:47.075Z,1.82
2018-11-07T21:31:16.709Z,1.25
2018-11-07T21:33:45.436Z,1.30
2018-11-07T21:36:14.143Z,1.92
2018-11-07T21:38:42.923Z,2.80
2018-11-07T21:41:11.702Z,1.65
2018-11-07T21:43:41.064Z,1.65
2018-11-07T21:46:10.537Z,1.67
2018-11-07T21:48:39.439Z,2.35
2018-11-07T21:51:08.216Z,2.08
2018-11-07T21:53:37.517Z,1.70
2018-11-07T21:56:06.231Z,2.37
2018-11-07T21:58:34.990Z,2.02
2018-11-07T22:01:03.725Z,2.10
2018-11-07T22:03:32.495Z,2.17
2018-11-07T22:06:01.229Z,2.15
2018-11-07T22:08:30.003Z,2.50
2018-11-07T22:10:58.887Z,1.92
2018-11-07T22:13:27.573Z,2.22
2018-11-07T22:15:56.292Z,1.95
2018-11-07T22:18:25.203Z,2.98
2018-11-07T22:20:53.904Z,2.35
2018-11-07T22:23:22.672Z,2.83
2018-11-07T22:25:51.490Z,2.20
2018-11-07T22:28:20.740Z,2.40
2018-11-07T22:30:49.437Z,2.20
2018-11-07T22:33:18.246Z,2.75
2018-11-07T22:35:47.084Z,1.75
2018-11-07T22:38:15.844Z,2.58
2018-11-07T22:40:45.414Z,1.40
2018-11-07T22:43:15.419Z,3.35
2018-11-07T22:45:44.695Z,3.12
2018-11-07T22:48:13.492Z,2.42
2018-11-07T22:50:44.618Z,2.60
2018-11-07T22:53:13.401Z,2.45
2018-11-07T22:55:42.181Z,1.85
2018-11-07T22:58:13.000Z,2.37
2018-11-07T23:00:47.345Z,2.60
2018-11-07T23:03:16.070Z,2.72
2018-11-07T23:05:44.812Z,2.55
2018-11-07T23:08:13.549Z,1.80
2018-11-07T23:10:42.283Z,2.35
2018-11-07T23:13:11.017Z,2.77
2018-11-07T23:15:45.135Z,3.02
2018-11-07T23:18:14.112Z,1.70
2018-11-07T23:20:43.045Z,2.27
2018-11-07T23:23:11.824Z,2.20
2018-11-07T23:25:40.564Z,1.70
2018-11-07T23:28:10.673Z,1.62
2018-11-07T23:30:39.447Z,1.55
2018-11-07T23:33:08.269Z,2.37
2018-11-07T23:35:37.343Z,1.60
2018-11-07T23:38:06.549Z,1.55
2018-11-07T23:40:35.217Z,2.75
2018-11-07T23:43:04.003Z,1.65
2018-11-07T23:45:34.179Z,1.50
2018-11-07T23:48:02.955Z,1.32
2018-11-07T23:50:31.647Z,2.37
2018-11-07T23:53:00.489Z,2.20
2018-11-07T23:55:29.222Z,1.20
2018-11-07T23:57:57.955Z,1.92
